Flight Track Log - Related Links

Times and Time Zones

All times are in EDT time to prevent confusion due to time zone crossing. See the LBQ870 flight status page for this flight to view local times or setup timezone preferences in your user account.

Time Position Orientation Groundspeed Altitude Reporting Facility
EDT Latitude Longitude Course Direction KTS MPH feet Rate Location/Type
Tue 07:40:17 AM 38.9333 -77.5833 270° West 127 146 4,000  Level Potomac TRACON
Tue 07:41:17 AM 38.9167 -77.6167 237° Southwest 127 146 4,900 450 Climbing Potomac TRACON
Tue 07:42:17 AM 38.9167 -77.6667 270° West 170 196 4,900  Level Potomac TRACON
Tue 07:43:11 AM 38.8833 -77.7167 229° Southwest 187 215 4,900 105 Level Potomac TRACON
Tue 07:44:00 AM 38.7403 -77.7229 229° Southwest  Level FlightAware Approximate
Tue 07:44:11 AM 38.8500 -77.7667 229° Southwest 186 214 5,100  Level Potomac TRACON
Tue 07:45:11 AM 38.8167 -77.8000 218° Southwest 167 192 5,800 550 Climbing Potomac TRACON
Tue 07:46:11 AM 38.7833 -77.8500 229° Southwest 165 190 6,200 450 Climbing Potomac TRACON
Tue 07:47:11 AM 38.7500 -77.8833 218° Southwest 172 198 6,700 500 Climbing Potomac TRACON
Tue 07:48:11 AM 38.7167 -77.9333 229° Southwest 164 189 7,200 450 Climbing Potomac TRACON
Tue 07:49:11 AM 38.6833 -77.9833 230° Southwest 163 188 7,600 350 Climbing Potomac TRACON
Tue 07:50:11 AM 38.6500 -78.0167 218° Southwest 170 196 7,900 150 Climbing Potomac TRACON
Tue 07:51:11 AM 38.6167 -78.0667 230° Southwest 182 209 7,900  Level Potomac TRACON
Tue 07:52:11 AM 38.5833 -78.1167 230° Southwest 189 217 7,900  Level Potomac TRACON
Tue 07:53:11 AM 38.5500 -78.1667 230° Southwest 191 220 7,900  Level Potomac TRACON
Tue 07:54:11 AM 38.5167 -78.2167 230° Southwest 192 221 7,900 50 Level Potomac TRACON
Tue 07:55:11 AM 38.4833 -78.2667 230° Southwest 196 226 8,000 50 Climbing Potomac TRACON
Tue 07:56:11 AM 38.4333 -78.3167 218° Southwest 195 224 8,000  Level Potomac TRACON
Tue 07:57:11 AM 38.4000 -78.3667 230° Southwest 196 226 8,000  Level Potomac TRACON
Tue 07:58:11 AM 38.3667 -78.4167 230° Southwest 194 223 8,000  Level Potomac TRACON
Tue 07:59:11 AM 38.3333 -78.4667 230° Southwest 191 220 8,000  Level Potomac TRACON
Tue 08:00:11 AM 38.3000 -78.5167 230° Southwest 189 217 8,000  Level Potomac TRACON
Tue 08:01:11 AM 38.2667 -78.5667 230° Southwest 192 221 8,000  Level Potomac TRACON
Tue 08:02:11 AM 38.2167 -78.6167 218° Southwest 191 220 8,000  Level Potomac TRACON
Tue 08:03:11 AM 38.1833 -78.6667 230° Southwest 190 219 8,000  Level Potomac TRACON
Tue 08:04:11 AM 38.1500 -78.7167 230° Southwest 194 223 8,000  Level Potomac TRACON
Tue 08:05:12 AM 38.1167 -78.7667 230° Southwest 199 229 8,000  Level Potomac TRACON
Tue 08:06:12 AM 38.0833 -78.8167 230° Southwest 193 222 8,000  Level Potomac TRACON
Tue 08:07:12 AM 38.0500 -78.8667 230° Southwest 199 229 8,000  Level Potomac TRACON
Tue 08:08:12 AM 38.0167 -78.9167 230° Southwest 190 219 8,000  Level Potomac TRACON
Tue 08:09:12 AM 37.9833 -78.9667 230° Southwest 193 222 8,000  Level Potomac TRACON
Tue 08:10:12 AM 37.9500 -79.0167 230° Southwest 193 222 8,000  Level Potomac TRACON
Tue 08:11:12 AM 37.9000 -79.0667 218° Southwest 198 228 8,000  Level Potomac TRACON
Tue 08:13:00 AM 37.8180 -79.0913 193° South  Level FlightAware Approximate
Tue 08:20:00 AM 37.5952 -79.3948 229° Southwest  Level Estimated
Tue 08:21:00 AM 37.5527 -79.4194 205° Southwest  Level FlightAware Approximate
Tue 08:22:00 AM 37.5209 -79.4628 227° Southwest  Level Estimated
Tue 08:23:00 AM 37.4881 -79.5048 226° Southwest  Level FlightAware Approximate
Tue 08:24:00 AM 37.4553 -79.5469 225° Southwest  Level FlightAware Approximate
Tue 08:25:00 AM 37.4225 -79.5889 225° Southwest  Level FlightAware Approximate
Tue 08:26:00 AM 37.3897 -79.6308 225° Southwest  Level FlightAware Approximate
Tue 08:27:00 AM 37.3568 -79.6728 225° Southwest  Level FlightAware Approximate
Tue 08:28:00 AM 37.3239 -79.7146 225° Southwest  Level FlightAware Approximate
Tue 08:29:00 AM 37.2910 -79.7565 225° Southwest  Level FlightAware Approximate
Tue 08:30:00 AM 37.2581 -79.7983 225° Southwest  Level FlightAware Approximate
Tue 08:31:00 AM 37.2252 -79.8401 225° Southwest  Level FlightAware Approximate
Tue 08:32:00 AM 37.1923 -79.8818 225° Southwest  Level FlightAware Approximate
Tue 08:33:00 AM 37.1594 -79.9235 225° Southwest  Level FlightAware Approximate
Tue 08:33:06 AM 37.0872 -80.1517 225° Southwest 189 217 8,000  Level Atlanta Center
Tue 08:34:00 AM 37.1264 -79.9652 225° Southwest  Level FlightAware Approximate
Tue 08:34:06 AM 37.0511 -80.1978 226° Southwest 189 217 8,000  Level Atlanta Center
Tue 08:35:00 AM 37.0934 -80.0068 225° Southwest  Level FlightAware Approximate
Tue 08:35:06 AM 37.0153 -80.2461 227° Southwest 189 217 8,000  Level Atlanta Center
Tue 08:36:00 AM 37.0604 -80.0484 225° Southwest  Level FlightAware Approximate
Tue 08:36:06 AM 36.9811 -80.2894 225° Southwest 194 223 8,000  Level Atlanta Center
Tue 08:37:00 AM 37.0274 -80.0900 225° Southwest  Level FlightAware Approximate
Tue 08:37:06 AM 36.9431 -80.3406 227° Southwest 199 229 8,000  Level Atlanta Center
Tue 08:38:00 AM 36.9944 -80.1315 225° Southwest  Level FlightAware Approximate
Tue 08:38:06 AM 36.9069 -80.3889 227° Southwest 199 229 8,000  Level Atlanta Center
Tue 08:39:06 AM 36.8628 -80.4428 224° Southwest 199 229 8,000  Level Atlanta Center
Tue 08:40:06 AM 36.8244 -80.4939 227° Southwest 199 229 8,000  Level Atlanta Center
Tue 08:41:06 AM 36.7864 -80.5422 225° Southwest 199 229 8,000  Level Atlanta Center
Tue 08:42:06 AM 36.7481 -80.5931 227° Southwest 199 229 8,000  Level Atlanta Center
Tue 08:43:06 AM 36.7097 -80.6389 224° Southwest 199 229 8,000  Level Atlanta Center
Tue 08:44:06 AM 36.6717 -80.6922 228° Southwest 199 229 8,000  Level Atlanta Center
Tue 08:45:06 AM 36.6333 -80.7403 225° Southwest 199 229 8,000  Level Atlanta Center
Tue 08:46:06 AM 36.5969 -80.7858 225° Southwest 199 229 8,000  Level Atlanta Center
Tue 08:47:06 AM 36.5608 -80.8339 227° Southwest 199 229 8,000  Level Atlanta Center
Tue 08:48:06 AM 36.5222 -80.8794 223° Southwest 199 229 8,000  Level Atlanta Center
Tue 08:49:06 AM 36.4819 -80.9300 225° Southwest 199 229 8,000  Level Atlanta Center
Tue 08:50:06 AM 36.4436 -80.9806 227° Southwest 199 229 8,000  Level Atlanta Center
Tue 08:51:06 AM 36.4053 -81.0336 228° Southwest 199 229 8,000  Level Atlanta Center
Tue 08:52:06 AM 36.3667 -81.0789 223° Southwest 199 229 8,000  Level Atlanta Center
Tue 08:53:06 AM 36.3242 -81.1344 226° Southwest 199 229 8,000  Level Atlanta Center
Tue 08:54:06 AM 36.2836 -81.1850 225° Southwest 199 229 8,000  Level Atlanta Center
Tue 08:55:06 AM 36.2431 -81.2328 224° Southwest 199 229 8,000 50 Level Atlanta Center
Tue 08:56:06 AM 36.2067 -81.2803 226° Southwest 204 235 8,100 50 Climbing Atlanta Center
Tue 08:57:06 AM 36.1681 -81.3331 228° Southwest 198 228 8,100  Level Atlanta Center
Tue 08:58:06 AM 36.1297 -81.3831 227° Southwest 203 234 8,100  Level Atlanta Center
Tue 08:59:06 AM 36.0911 -81.4333 226° Southwest 203 234 8,100  Level Atlanta Center
Tue 09:00:06 AM 36.0483 -81.4808 222° Southwest 203 234 8,100  Level Atlanta Center
Tue 09:01:06 AM 36.0117 -81.5283 226° Southwest 203 234 8,100  Level Atlanta Center
Tue 09:02:06 AM 35.9711 -81.5783 225° Southwest 203 234 8,100  Level Atlanta Center
Tue 09:03:06 AM 35.9325 -81.6281 226° Southwest 198 228 8,100  Level Atlanta Center
Tue 09:04:06 AM 35.8917 -81.6781 225° Southwest 198 228 8,100  Level Atlanta Center
Tue 09:05:06 AM 35.8528 -81.7253 225° Southwest 198 228 8,100  Level Atlanta Center
Tue 09:06:06 AM 35.8183 -81.7697 226° Southwest 198 228 8,100  Level Atlanta Center
Tue 09:07:06 AM 35.7775 -81.8194 225° Southwest 203 234 8,100  Level Atlanta Center
Tue 09:08:06 AM 35.7408 -81.8639 225° Southwest 198 228 8,100  Level Atlanta Center
Tue 09:09:06 AM 35.6997 -81.9111 223° Southwest 198 228 8,100  Level Atlanta Center
Tue 09:10:06 AM 35.6631 -81.9581 226° Southwest 198 228 8,100  Level Atlanta Center
Tue 09:11:06 AM 35.6242 -82.0050 224° Southwest 198 228 8,100  Level Atlanta Center
Tue 09:12:06 AM 35.5894 -82.0519 228° Southwest 191 220 8,100  Level Atlanta Center
Tue 09:13:06 AM 35.5444 -82.1042 223° Southwest 197 227 8,100  Level Atlanta Center
Tue 09:14:06 AM 35.5078 -82.1533 228° Southwest 197 227 8,100  Level Atlanta Center
Tue 09:15:06 AM 35.4667 -82.2003 223° Southwest 197 227 8,100  Level Atlanta Center
Tue 09:16:06 AM 35.4256 -82.2494 224° Southwest 202 232 8,100  Level Atlanta Center
Tue 09:17:06 AM 35.3867 -82.3014 227° Southwest 202 232 8,100  Level Atlanta Center
Tue 09:18:06 AM 35.3458 -82.3506 224° Southwest 202 232 8,100  Level Atlanta Center
Tue 09:19:06 AM 35.3025 -82.4025 224° Southwest 207 238 8,100  Level Atlanta Center
Tue 09:20:06 AM 35.2656 -82.4464 224° Southwest 205 236 8,100  Level Atlanta Center
Tue 09:21:06 AM 35.2244 -82.4956 224° Southwest 205 236 8,100  Level Atlanta Center
Tue 09:22:06 AM 35.1814 -82.5497 226° Southwest 209 241 8,100  Level Atlanta Center
Tue 09:23:06 AM 35.1422 -82.5961 224° Southwest 214 246 8,100  Level Atlanta Center
Tue 09:24:06 AM 35.1011 -82.6425 223° Southwest 214 246 8,100  Level Atlanta Center
Tue 09:25:06 AM 35.0600 -82.6889 223° Southwest 214 246 8,100  Level Atlanta Center
Tue 09:26:06 AM 35.0186 -82.7353 223° Southwest 214 246 8,100  Level Atlanta Center
Tue 09:27:06 AM 34.9794 -82.7917 230° Southwest 214 246 8,100  Level Atlanta Center
Tue 09:28:06 AM 34.9383 -82.8378 223° Southwest 214 246 8,100  Level Atlanta Center
Tue 09:29:06 AM 34.8969 -82.8892 226° Southwest 214 246 8,100  Level Atlanta Center
Tue 09:30:06 AM 34.8558 -82.9353 223° Southwest 208 239 8,100  Level Atlanta Center
Tue 09:31:06 AM 34.8144 -82.9811 222° Southwest 208 239 8,100  Level Atlanta Center
Tue 09:32:06 AM 34.7731 -83.0297 224° Southwest 213 245 8,100  Level Atlanta Center
Tue 09:33:06 AM 34.7381 -83.0783 229° Southwest 213 245 8,100  Level Atlanta Center
Tue 09:34:06 AM 34.6967 -83.1267 224° Southwest 213 245 8,100  Level Atlanta Center
Tue 09:35:06 AM 34.6553 -83.1725 222° Southwest 213 245 8,100  Level Atlanta Center
Tue 09:36:06 AM 34.6139 -83.2236 225° Southwest 213 245 8,100  Level Atlanta Center
Tue 09:37:06 AM 34.5767 -83.2642 222° Southwest 205 236 8,100  Level Atlanta Center
Tue 09:38:06 AM 34.5350 -83.3150 225° Southwest 205 236 8,100 -50 Level Atlanta Center
Tue 09:39:06 AM 34.4958 -83.3608 224° Southwest 205 236 8,000 -150 Descending Atlanta Center
Tue 09:40:06 AM 34.4522 -83.4117 224° Southwest 205 236 7,800 -150 Descending Atlanta Center
Tue 09:41:06 AM 34.4128 -83.4597 225° Southwest 205 236 7,700 -100 Descending Atlanta Center
Tue 09:42:06 AM 34.3650 -83.5103 221° Southwest 210 242 7,600 -300 Descending Atlanta Center
Tue 09:43:06 AM 34.3233 -83.5608 225° Southwest 215 247 7,100 -500 Descending Atlanta Center
Tue 09:44:06 AM 34.2881 -83.6114 230° Southwest 209 241 6,600 -450 Descending Atlanta Center
Tue 09:45:06 AM 34.2467 -83.6569 222° Southwest 201 231 6,200 -650 Descending Atlanta Center
Tue 09:46:06 AM 34.1903 -83.6897 206° Southwest 220 253 5,300 -750 Descending Atlanta Center
Tue 09:47:06 AM 34.1361 -83.7300 212° Southwest 233 268 4,700 -550 Descending Atlanta Center
Tue 09:48:06 AM 34.0925 -83.7603 210° Southwest 228 262 4,200 -550 Descending Atlanta Center
Tue 09:49:06 AM 34.0444 -83.7981 213° Southwest 216 249 3,600 -650 Descending Atlanta Center
Tue 09:50:06 AM 34.0217 -83.8583 246° West 198 228 2,900 -923 Descending Atlanta Center
Tue 09:50:50 AM 34.0000 -83.9000 238° Southwest 167 192 2,000 -1,227 Descending Atlanta TRACON
Tue 09:52:00 AM 33.9667 -83.9500 180° South  Level FlightAware Approximate
Tue 09:59:00 AM 33.9781 -83.9624 180° South  Level Estimated
Tue 10:00:00 AM 33.9781 -83.9624 180° South  Level Estimated

Login

Don't have an account? Register now (free) for customized features, flight alerts, and more!